sensor_id;sensor_type;location;lat;lon;timestamp;temperature;humidity
9987;DHT22;5033;46.310;11.214;2023-07-29T00:01:59;19.80;99.90
9987;DHT22;5033;46.310;11.214;2023-07-29T00:04:26;19.70;99.90
9987;DHT22;5033;46.310;11.214;2023-07-29T00:06:53;19.70;99.90
9987;DHT22;5033;46.310;11.214;2023-07-29T00:09:20;19.70;99.90
9987;DHT22;5033;46.310;11.214;2023-07-29T00:11:48;19.70;99.90
9987;DHT22;5033;46.310;11.214;2023-07-29T00:14:15;19.60;99.90
9987;DHT22;5033;46.310;11.214;2023-07-29T00:16:44;19.60;99.90
9987;DHT22;5033;46.310;11.214;2023-07-29T00:19:11;19.60;99.90
9987;DHT22;5033;46.310;11.214;2023-07-29T00:21:38;19.60;99.90
9987;DHT22;5033;46.310;11.214;2023-07-29T00:24:05;19.50;99.90
9987;DHT22;5033;46.310;11.214;2023-07-29T00:26:32;19.40;99.90
9987;DHT22;5033;46.310;11.214;2023-07-29T00:29:00;19.40;99.90
9987;DHT22;5033;46.310;11.214;2023-07-29T00:31:27;19.40;99.90
9987;DHT22;5033;46.310;11.214;2023-07-29T00:33:55;19.40;99.90
9987;DHT22;5033;46.310;11.214;2023-07-29T00:36:23;19.40;99.90
9987;DHT22;5033;46.310;11.214;2023-07-29T00:38:50;19.40;99.90
9987;DHT22;5033;46.310;11.214;2023-07-29T00:41:18;19.40;99.90
9987;DHT22;5033;46.310;11.214;2023-07-29T00:43:46;19.40;99.90
9987;DHT22;5033;46.310;11.214;2023-07-29T00:46:13;19.30;99.90
9987;DHT22;5033;46.310;11.214;2023-07-29T00:48:40;19.30;99.90
9987;DHT22;5033;46.310;11.214;2023-07-29T00:51:08;19.20;99.90
9987;DHT22;5033;46.310;11.214;2023-07-29T00:53:36;19.20;99.90
9987;DHT22;5033;46.310;11.214;2023-07-29T00:56:03;19.20;99.90
9987;DHT22;5033;46.310;11.214;2023-07-29T00:58:30;19.20;99.90
9987;DHT22;5033;46.310;11.214;2023-07-29T01:00:57;19.20;99.90
9987;DHT22;5033;46.310;11.214;2023-07-29T01:03:24;19.20;99.90
9987;DHT22;5033;46.310;11.214;2023-07-29T01:06:01;19.20;99.90
9987;DHT22;5033;46.310;11.214;2023-07-29T01:08:41;19.10;99.90
9987;DHT22;5033;46.310;11.214;2023-07-29T01:11:23;19.10;99.90
9987;DHT22;5033;46.310;11.214;2023-07-29T01:14:01;19.10;99.90
9987;DHT22;5033;46.310;11.214;2023-07-29T01:16:41;19.00;99.90
9987;DHT22;5033;46.310;11.214;2023-07-29T01:19:43;19.00;99.90
9987;DHT22;5033;46.310;11.214;2023-07-29T01:22:17;18.90;99.90
9987;DHT22;5033;46.310;11.214;2023-07-29T01:24:47;18.90;99.90
9987;DHT22;5033;46.310;11.214;2023-07-29T01:27:26;18.90;99.90
9987;DHT22;5033;46.310;11.214;2023-07-29T01:30:16;18.90;99.90
9987;DHT22;5033;46.310;11.214;2023-07-29T01:32:46;18.90;99.90
9987;DHT22;5033;46.310;11.214;2023-07-29T01:35:21;18.90;99.90
9987;DHT22;5033;46.310;11.214;2023-07-29T01:37:55;18.90;99.90
9987;DHT22;5033;46.310;11.214;2023-07-29T01:40:28;18.90;99.90
9987;DHT22;5033;46.310;11.214;2023-07-29T01:43:05;18.90;99.90
9987;DHT22;5033;46.310;11.214;2023-07-29T01:45:54;18.90;99.90
9987;DHT22;5033;46.310;11.214;2023-07-29T01:48:24;18.80;99.90
9987;DHT22;5033;46.310;11.214;2023-07-29T01:51:00;18.80;99.90
9987;DHT22;5033;46.310;11.214;2023-07-29T01:53:27;18.70;99.90
9987;DHT22;5033;46.310;11.214;2023-07-29T01:55:56;18.70;99.90
9987;DHT22;5033;46.310;11.214;2023-07-29T01:58:26;18.70;99.90
9987;DHT22;5033;46.310;11.214;2023-07-29T02:00:54;18.70;99.90
9987;DHT22;5033;46.310;11.214;2023-07-29T02:03:21;18.60;99.90
9987;DHT22;5033;46.310;11.214;2023-07-29T02:05:48;18.60;99.90
9987;DHT22;5033;46.310;11.214;2023-07-29T02:08:15;18.60;99.90
9987;DHT22;5033;46.310;11.214;2023-07-29T02:10:42;18.60;99.90
9987;DHT22;5033;46.310;11.214;2023-07-29T02:13:12;18.60;99.90
9987;DHT22;5033;46.310;11.214;2023-07-29T02:15:39;18.60;99.90
9987;DHT22;5033;46.310;11.214;2023-07-29T02:18:06;18.60;99.90
9987;DHT22;5033;46.310;11.214;2023-07-29T02:20:33;18.60;99.90
9987;DHT22;5033;46.310;11.214;2023-07-29T02:23:00;18.70;99.90
9987;DHT22;5033;46.310;11.214;2023-07-29T02:25:27;18.70;99.90
9987;DHT22;5033;46.310;11.214;2023-07-29T02:27:55;18.60;99.90
9987;DHT22;5033;46.310;11.214;2023-07-29T02:30:23;18.60;99.90
9987;DHT22;5033;46.310;11.214;2023-07-29T02:32:50;18.70;99.90
9987;DHT22;5033;46.310;11.214;2023-07-29T02:35:17;18.70;99.90
9987;DHT22;5033;46.310;11.214;2023-07-29T02:37:44;18.70;99.90
9987;DHT22;5033;46.310;11.214;2023-07-29T02:40:11;18.70;99.90
9987;DHT22;5033;46.310;11.214;2023-07-29T02:42:39;18.70;99.90
9987;DHT22;5033;46.310;11.214;2023-07-29T02:45:07;18.60;99.90
9987;DHT22;5033;46.310;11.214;2023-07-29T02:47:37;18.70;99.90
9987;DHT22;5033;46.310;11.214;2023-07-29T02:50:05;18.60;99.90
9987;DHT22;5033;46.310;11.214;2023-07-29T02:52:32;18.60;99.90
9987;DHT22;5033;46.310;11.214;2023-07-29T02:54:59;18.60;99.90
9987;DHT22;5033;46.310;11.214;2023-07-29T02:57:26;18.60;99.90
9987;DHT22;5033;46.310;11.214;2023-07-29T02:59:53;18.60;99.90
9987;DHT22;5033;46.310;11.214;2023-07-29T03:02:20;18.60;99.90
9987;DHT22;5033;46.310;11.214;2023-07-29T03:04:49;18.60;99.90
9987;DHT22;5033;46.310;11.214;2023-07-29T03:07:16;18.60;99.90
9987;DHT22;5033;46.310;11.214;2023-07-29T03:09:43;18.60;99.90
9987;DHT22;5033;46.310;11.214;2023-07-29T03:12:10;18.60;99.90
9987;DHT22;5033;46.310;11.214;2023-07-29T03:14:37;18.60;99.90
9987;DHT22;5033;46.310;11.214;2023-07-29T03:17:05;18.60;99.90
9987;DHT22;5033;46.310;11.214;2023-07-29T03:19:32;18.60;99.90
9987;DHT22;5033;46.310;11.214;2023-07-29T03:22:00;18.50;99.90
9987;DHT22;5033;46.310;11.214;2023-07-29T03:24:27;18.40;99.90
9987;DHT22;5033;46.310;11.214;2023-07-29T03:26:55;18.40;99.90
9987;DHT22;5033;46.310;11.214;2023-07-29T03:29:22;18.40;99.90
9987;DHT22;5033;46.310;11.214;2023-07-29T03:31:48;18.50;99.90
9987;DHT22;5033;46.310;11.214;2023-07-29T03:34:15;18.50;99.90
9987;DHT22;5033;46.310;11.214;2023-07-29T03:36:42;18.50;99.90
9987;DHT22;5033;46.310;11.214;2023-07-29T03:39:13;18.50;99.90
9987;DHT22;5033;46.310;11.214;2023-07-29T03:41:40;18.50;99.90
9987;DHT22;5033;46.310;11.214;2023-07-29T03:44:07;18.40;99.90
9987;DHT22;5033;46.310;11.214;2023-07-29T03:46:34;18.40;99.90
9987;DHT22;5033;46.310;11.214;2023-07-29T03:49:01;18.40;99.90
9987;DHT22;5033;46.310;11.214;2023-07-29T03:51:28;18.40;99.90
9987;DHT22;5033;46.310;11.214;2023-07-29T03:53:55;18.40;99.90
9987;DHT22;5033;46.310;11.214;2023-07-29T03:56:24;18.40;99.90
9987;DHT22;5033;46.310;11.214;2023-07-29T03:58:51;18.40;99.90
9987;DHT22;5033;46.310;11.214;2023-07-29T04:01:19;18.30;99.90
9987;DHT22;5033;46.310;11.214;2023-07-29T04:03:46;18.40;99.90
9987;DHT22;5033;46.310;11.214;2023-07-29T04:06:13;18.40;99.90
9987;DHT22;5033;46.310;11.214;2023-07-29T04:08:40;18.40;99.90
9987;DHT22;5033;46.310;11.214;2023-07-29T04:11:08;18.30;99.90
9987;DHT22;5033;46.310;11.214;2023-07-29T04:13:36;18.20;99.90
9987;DHT22;5033;46.310;11.214;2023-07-29T04:16:04;18.20;99.90
9987;DHT22;5033;46.310;11.214;2023-07-29T04:18:31;18.30;99.90
9987;DHT22;5033;46.310;11.214;2023-07-29T04:20:58;18.40;99.90
9987;DHT22;5033;46.310;11.214;2023-07-29T04:23:25;18.50;99.90
9987;DHT22;5033;46.310;11.214;2023-07-29T04:25:52;18.50;99.90
9987;DHT22;5033;46.310;11.214;2023-07-29T04:28:19;18.50;99.90
9987;DHT22;5033;46.310;11.214;2023-07-29T04:30:48;18.60;99.90
9987;DHT22;5033;46.310;11.214;2023-07-29T04:33:15;18.70;99.90
9987;DHT22;5033;46.310;11.214;2023-07-29T04:35:43;18.70;99.90
9987;DHT22;5033;46.310;11.214;2023-07-29T04:38:09;18.70;99.90
9987;DHT22;5033;46.310;11.214;2023-07-29T04:40:36;18.70;99.90
9987;DHT22;5033;46.310;11.214;2023-07-29T04:43:03;18.70;99.90
9987;DHT22;5033;46.310;11.214;2023-07-29T04:45:31;18.70;99.90
9987;DHT22;5033;46.310;11.214;2023-07-29T04:47:59;18.80;99.90
9987;DHT22;5033;46.310;11.214;2023-07-29T04:50:26;18.90;99.90
9987;DHT22;5033;46.310;11.214;2023-07-29T04:52:53;19.00;99.90
9987;DHT22;5033;46.310;11.214;2023-07-29T04:55:20;19.10;99.90
9987;DHT22;5033;46.310;11.214;2023-07-29T04:57:47;19.20;99.90
9987;DHT22;5033;46.310;11.214;2023-07-29T05:00:14;19.20;99.90
9987;DHT22;5033;46.310;11.214;2023-07-29T05:02:41;19.20;99.90
9987;DHT22;5033;46.310;11.214;2023-07-29T05:05:10;19.10;99.90
9987;DHT22;5033;46.310;11.214;2023-07-29T05:07:37;19.00;99.90
9987;DHT22;5033;46.310;11.214;2023-07-29T05:10:04;18.90;99.90
9987;DHT22;5033;46.310;11.214;2023-07-29T05:12:32;18.80;99.90
9987;DHT22;5033;46.310;11.214;2023-07-29T05:14:59;18.80;99.90
9987;DHT22;5033;46.310;11.214;2023-07-29T05:17:26;18.80;99.90
9987;DHT22;5033;46.310;11.214;2023-07-29T05:19:53;19.00;99.90
9987;DHT22;5033;46.310;11.214;2023-07-29T05:22:22;19.10;99.90
9987;DHT22;5033;46.310;11.214;2023-07-29T05:24:50;19.20;99.90
9987;DHT22;5033;46.310;11.214;2023-07-29T05:27:17;19.20;99.90
9987;DHT22;5033;46.310;11.214;2023-07-29T05:29:44;19.10;99.90
9987;DHT22;5033;46.310;11.214;2023-07-29T05:32:11;19.10;99.90
9987;DHT22;5033;46.310;11.214;2023-07-29T05:34:39;19.20;99.90
9987;DHT22;5033;46.310;11.214;2023-07-29T05:37:06;19.50;99.90
9987;DHT22;5033;46.310;11.214;2023-07-29T05:39:34;19.80;99.90
9987;DHT22;5033;46.310;11.214;2023-07-29T05:42:03;20.00;99.90
9987;DHT22;5033;46.310;11.214;2023-07-29T05:44:31;20.30;99.90
9987;DHT22;5033;46.310;11.214;2023-07-29T05:46:58;20.60;99.90
9987;DHT22;5033;46.310;11.214;2023-07-29T05:49:25;20.90;99.90
9987;DHT22;5033;46.310;11.214;2023-07-29T05:51:52;21.00;99.90
9987;DHT22;5033;46.310;11.214;2023-07-29T05:54:19;21.10;99.90
9987;DHT22;5033;46.310;11.214;2023-07-29T05:56:48;21.10;99.90
9987;DHT22;5033;46.310;11.214;2023-07-29T05:59:14;21.10;99.90
9987;DHT22;5033;46.310;11.214;2023-07-29T06:01:42;21.20;99.90
9987;DHT22;5033;46.310;11.214;2023-07-29T06:04:09;21.30;99.90
9987;DHT22;5033;46.310;11.214;2023-07-29T06:06:36;21.40;99.90
9987;DHT22;5033;46.310;11.214;2023-07-29T06:09:03;21.40;99.90
9987;DHT22;5033;46.310;11.214;2023-07-29T06:11:30;21.30;99.90
9987;DHT22;5033;46.310;11.214;2023-07-29T06:13:59;21.30;99.90
9987;DHT22;5033;46.310;11.214;2023-07-29T06:16:26;21.30;99.90
9987;DHT22;5033;46.310;11.214;2023-07-29T06:18:52;21.30;99.90
9987;DHT22;5033;46.310;11.214;2023-07-29T06:21:19;21.30;99.90
9987;DHT22;5033;46.310;11.214;2023-07-29T06:23:46;21.40;99.90
9987;DHT22;5033;46.310;11.214;2023-07-29T06:26:14;21.40;99.90
9987;DHT22;5033;46.310;11.214;2023-07-29T06:28:41;21.40;99.90
9987;DHT22;5033;46.310;11.214;2023-07-29T06:31:10;21.50;99.90
9987;DHT22;5033;46.310;11.214;2023-07-29T06:33:37;21.50;99.90
9987;DHT22;5033;46.310;11.214;2023-07-29T06:36:04;21.60;99.90
9987;DHT22;5033;46.310;11.214;2023-07-29T06:38:31;21.70;99.90
9987;DHT22;5033;46.310;11.214;2023-07-29T06:40:58;21.80;99.90
9987;DHT22;5033;46.310;11.214;2023-07-29T06:43:25;21.70;99.90
9987;DHT22;5033;46.310;11.214;2023-07-29T06:45:52;21.70;99.90
9987;DHT22;5033;46.310;11.214;2023-07-29T06:48:22;21.80;99.90
9987;DHT22;5033;46.310;11.214;2023-07-29T06:50:49;21.90;99.90
9987;DHT22;5033;46.310;11.214;2023-07-29T06:53:16;22.00;99.90
9987;DHT22;5033;46.310;11.214;2023-07-29T06:55:43;22.00;99.90
9987;DHT22;5033;46.310;11.214;2023-07-29T06:58:11;22.10;99.90
9987;DHT22;5033;46.310;11.214;2023-07-29T07:00:38;22.20;99.90
9987;DHT22;5033;46.310;11.214;2023-07-29T07:03:05;22.30;99.90
9987;DHT22;5033;46.310;11.214;2023-07-29T07:05:33;22.30;99.90
9987;DHT22;5033;46.310;11.214;2023-07-29T07:08:01;22.30;99.90
9987;DHT22;5033;46.310;11.214;2023-07-29T07:10:28;22.40;99.90
9987;DHT22;5033;46.310;11.214;2023-07-29T07:12:55;22.40;99.90
9987;DHT22;5033;46.310;11.214;2023-07-29T07:15:22;22.40;99.90
9987;DHT22;5033;46.310;11.214;2023-07-29T07:17:49;22.50;99.90
9987;DHT22;5033;46.310;11.214;2023-07-29T07:20:17;22.60;99.90
9987;DHT22;5033;46.310;11.214;2023-07-29T07:22:46;22.50;99.90
9987;DHT22;5033;46.310;11.214;2023-07-29T07:25:13;22.50;99.90
9987;DHT22;5033;46.310;11.214;2023-07-29T07:27:40;22.70;99.90
9987;DHT22;5033;46.310;11.214;2023-07-29T07:30:08;22.80;99.90
9987;DHT22;5033;46.310;11.214;2023-07-29T07:32:35;22.80;99.90
9987;DHT22;5033;46.310;11.214;2023-07-29T07:35:03;22.90;99.90
9987;DHT22;5033;46.310;11.214;2023-07-29T07:37:30;23.00;99.90
9987;DHT22;5033;46.310;11.214;2023-07-29T07:39:59;23.00;99.90
9987;DHT22;5033;46.310;11.214;2023-07-29T07:42:26;23.20;99.90
9987;DHT22;5033;46.310;11.214;2023-07-29T07:44:53;23.30;99.90
9987;DHT22;5033;46.310;11.214;2023-07-29T07:47:20;23.50;99.90
9987;DHT22;5033;46.310;11.214;2023-07-29T07:49:48;23.60;99.90
9987;DHT22;5033;46.310;11.214;2023-07-29T07:52:16;23.80;99.90
9987;DHT22;5033;46.310;11.214;2023-07-29T07:54:43;23.80;99.90
9987;DHT22;5033;46.310;11.214;2023-07-29T07:57:11;23.70;99.90
9987;DHT22;5033;46.310;11.214;2023-07-29T07:59:38;23.80;99.90
9987;DHT22;5033;46.310;11.214;2023-07-29T08:02:05;24.00;99.90
9987;DHT22;5033;46.310;11.214;2023-07-29T08:04:33;23.90;99.90
9987;DHT22;5033;46.310;11.214;2023-07-29T08:07:00;23.80;99.90
9987;DHT22;5033;46.310;11.214;2023-07-29T08:09:27;23.80;99.90
9987;DHT22;5033;46.310;11.214;2023-07-29T08:11:54;24.00;99.90
9987;DHT22;5033;46.310;11.214;2023-07-29T08:14:22;24.20;99.90
9987;DHT22;5033;46.310;11.214;2023-07-29T08:16:49;24.30;99.90
9987;DHT22;5033;46.310;11.214;2023-07-29T08:19:17;24.60;99.90
9987;DHT22;5033;46.310;11.214;2023-07-29T08:21:44;24.80;99.90
9987;DHT22;5033;46.310;11.214;2023-07-29T08:24:10;24.80;99.90
9987;DHT22;5033;46.310;11.214;2023-07-29T08:26:37;24.90;99.90
9987;DHT22;5033;46.310;11.214;2023-07-29T08:29:04;24.90;99.90
9987;DHT22;5033;46.310;11.214;2023-07-29T08:31:33;24.90;99.90
9987;DHT22;5033;46.310;11.214;2023-07-29T08:34:00;25.00;99.90
9987;DHT22;5033;46.310;11.214;2023-07-29T08:36:27;25.00;99.90
9987;DHT22;5033;46.310;11.214;2023-07-29T08:38:54;25.20;99.90
9987;DHT22;5033;46.310;11.214;2023-07-29T08:41:26;25.10;99.90
9987;DHT22;5033;46.310;11.214;2023-07-29T08:43:59;24.90;99.90
9987;DHT22;5033;46.310;11.214;2023-07-29T08:46:28;24.90;99.90
9987;DHT22;5033;46.310;11.214;2023-07-29T08:48:57;25.20;99.90
9987;DHT22;5033;46.310;11.214;2023-07-29T08:51:27;25.40;99.90
9987;DHT22;5033;46.310;11.214;2023-07-29T08:53:54;25.40;99.90
9987;DHT22;5033;46.310;11.214;2023-07-29T08:56:22;25.40;99.90
9987;DHT22;5033;46.310;11.214;2023-07-29T08:58:49;25.40;99.90
9987;DHT22;5033;46.310;11.214;2023-07-29T09:01:17;25.60;99.90
9987;DHT22;5033;46.310;11.214;2023-07-29T09:03:44;25.90;99.90
9987;DHT22;5033;46.310;11.214;2023-07-29T09:06:14;26.10;99.90
9987;DHT22;5033;46.310;11.214;2023-07-29T09:08:41;26.10;99.90
9987;DHT22;5033;46.310;11.214;2023-07-29T09:11:08;26.20;99.90
9987;DHT22;5033;46.310;11.214;2023-07-29T09:13:35;26.20;99.90
9987;DHT22;5033;46.310;11.214;2023-07-29T09:16:04;25.90;99.90
9987;DHT22;5033;46.310;11.214;2023-07-29T09:18:31;25.80;99.90
9987;DHT22;5033;46.310;11.214;2023-07-29T09:20:59;26.00;99.90
9987;DHT22;5033;46.310;11.214;2023-07-29T09:23:28;26.20;99.90
9987;DHT22;5033;46.310;11.214;2023-07-29T09:26:01;26.60;99.90
9987;DHT22;5033;46.310;11.214;2023-07-29T09:28:33;26.60;99.90
9987;DHT22;5033;46.310;11.214;2023-07-29T09:31:00;26.50;99.90
9987;DHT22;5033;46.310;11.214;2023-07-29T09:33:27;26.50;99.90
9987;DHT22;5033;46.310;11.214;2023-07-29T09:35:57;26.60;99.90
9987;DHT22;5033;46.310;11.214;2023-07-29T09:38:28;26.90;99.90
9987;DHT22;5033;46.310;11.214;2023-07-29T09:40:56;26.80;99.90
9987;DHT22;5033;46.310;11.214;2023-07-29T09:43:26;26.70;99.90
9987;DHT22;5033;46.310;11.214;2023-07-29T09:45:55;26.90;99.90
9987;DHT22;5033;46.310;11.214;2023-07-29T09:48:26;26.90;99.90
9987;DHT22;5033;46.310;11.214;2023-07-29T09:50:54;27.10;99.90
9987;DHT22;5033;46.310;11.214;2023-07-29T09:53:21;27.20;99.90
9987;DHT22;5033;46.310;11.214;2023-07-29T09:55:50;27.10;99.90
9987;DHT22;5033;46.310;11.214;2023-07-29T09:58:25;27.10;99.90
9987;DHT22;5033;46.310;11.214;2023-07-29T10:00:53;27.20;99.90
9987;DHT22;5033;46.310;11.214;2023-07-29T10:03:21;27.40;99.90
9987;DHT22;5033;46.310;11.214;2023-07-29T10:05:48;27.30;99.90
9987;DHT22;5033;46.310;11.214;2023-07-29T10:08:16;27.20;99.90
9987;DHT22;5033;46.310;11.214;2023-07-29T10:10:45;27.20;99.90
9987;DHT22;5033;46.310;11.214;2023-07-29T10:13:14;27.30;99.90
9987;DHT22;5033;46.310;11.214;2023-07-29T10:15:42;27.40;99.90
9987;DHT22;5033;46.310;11.214;2023-07-29T10:18:11;27.50;99.90
9987;DHT22;5033;46.310;11.214;2023-07-29T10:20:39;27.40;99.90
9987;DHT22;5033;46.310;11.214;2023-07-29T10:23:07;27.50;99.90
9987;DHT22;5033;46.310;11.214;2023-07-29T10:25:38;27.50;99.90
9987;DHT22;5033;46.310;11.214;2023-07-29T10:28:08;27.50;99.90
9987;DHT22;5033;46.310;11.214;2023-07-29T10:30:36;27.50;99.90
9987;DHT22;5033;46.310;11.214;2023-07-29T10:33:04;27.50;99.90
9987;DHT22;5033;46.310;11.214;2023-07-29T10:35:32;27.50;99.90
9987;DHT22;5033;46.310;11.214;2023-07-29T10:38:02;27.70;99.90
9987;DHT22;5033;46.310;11.214;2023-07-29T10:40:44;27.90;99.90
9987;DHT22;5033;46.310;11.214;2023-07-29T10:43:12;28.00;99.90
9987;DHT22;5033;46.310;11.214;2023-07-29T10:45:42;28.30;99.90
9987;DHT22;5033;46.310;11.214;2023-07-29T10:48:11;28.40;99.90
9987;DHT22;5033;46.310;11.214;2023-07-29T10:50:39;28.20;99.90
9987;DHT22;5033;46.310;11.214;2023-07-29T10:53:06;28.10;99.90
9987;DHT22;5033;46.310;11.214;2023-07-29T10:55:34;28.40;99.90
9987;DHT22;5033;46.310;11.214;2023-07-29T10:58:08;28.60;99.90
9987;DHT22;5033;46.310;11.214;2023-07-29T11:00:35;28.70;99.90
9987;DHT22;5033;46.310;11.214;2023-07-29T11:03:06;28.70;99.90
9987;DHT22;5033;46.310;11.214;2023-07-29T11:05:47;28.80;99.90
9987;DHT22;5033;46.310;11.214;2023-07-29T11:08:20;28.80;99.90
9987;DHT22;5033;46.310;11.214;2023-07-29T11:11:04;28.70;99.90
9987;DHT22;5033;46.310;11.214;2023-07-29T11:13:34;28.60;99.90
9987;DHT22;5033;46.310;11.214;2023-07-29T11:16:02;28.60;99.90
9987;DHT22;5033;46.310;11.214;2023-07-29T11:18:32;28.50;99.90
9987;DHT22;5033;46.310;11.214;2023-07-29T11:21:00;28.70;99.90
9987;DHT22;5033;46.310;11.214;2023-07-29T11:23:30;28.70;99.90
9987;DHT22;5033;46.310;11.214;2023-07-29T11:25:57;28.70;99.90
9987;DHT22;5033;46.310;11.214;2023-07-29T11:28:25;28.70;99.90
9987;DHT22;5033;46.310;11.214;2023-07-29T11:30:53;29.00;99.90
9987;DHT22;5033;46.310;11.214;2023-07-29T11:33:23;29.20;99.90
9987;DHT22;5033;46.310;11.214;2023-07-29T11:35:52;29.30;99.90
9987;DHT22;5033;46.310;11.214;2023-07-29T11:38:20;29.40;99.90
9987;DHT22;5033;46.310;11.214;2023-07-29T11:40:59;29.40;99.90
9987;DHT22;5033;46.310;11.214;2023-07-29T11:43:26;29.30;99.90
9987;DHT22;5033;46.310;11.214;2023-07-29T11:45:54;29.20;99.90
9987;DHT22;5033;46.310;11.214;2023-07-29T11:48:28;29.10;99.90
9987;DHT22;5033;46.310;11.214;2023-07-29T11:50:56;29.10;99.90
9987;DHT22;5033;46.310;11.214;2023-07-29T11:53:27;29.00;99.90
9987;DHT22;5033;46.310;11.214;2023-07-29T11:55:54;29.10;99.90
9987;DHT22;5033;46.310;11.214;2023-07-29T11:58:21;28.90;99.90
9987;DHT22;5033;46.310;11.214;2023-07-29T12:00:49;28.90;99.90
9987;DHT22;5033;46.310;11.214;2023-07-29T12:03:17;28.90;99.90
9987;DHT22;5033;46.310;11.214;2023-07-29T12:05:44;28.80;99.90
9987;DHT22;5033;46.310;11.214;2023-07-29T12:08:13;28.80;99.90
9987;DHT22;5033;46.310;11.214;2023-07-29T12:10:40;28.90;99.90
9987;DHT22;5033;46.310;11.214;2023-07-29T12:13:08;28.80;99.90
9987;DHT22;5033;46.310;11.214;2023-07-29T12:15:38;28.70;99.90
9987;DHT22;5033;46.310;11.214;2023-07-29T12:18:05;28.90;99.90
9987;DHT22;5033;46.310;11.214;2023-07-29T12:20:32;29.00;99.90
9987;DHT22;5033;46.310;11.214;2023-07-29T12:23:00;29.00;99.90
9987;DHT22;5033;46.310;11.214;2023-07-29T12:25:30;29.20;99.90
9987;DHT22;5033;46.310;11.214;2023-07-29T12:28:01;29.20;99.90
9987;DHT22;5033;46.310;11.214;2023-07-29T12:30:28;29.40;99.90
9987;DHT22;5033;46.310;11.214;2023-07-29T12:32:55;29.30;99.90
9987;DHT22;5033;46.310;11.214;2023-07-29T12:35:23;29.40;99.90
9987;DHT22;5033;46.310;11.214;2023-07-29T12:37:58;29.50;99.90
9987;DHT22;5033;46.310;11.214;2023-07-29T12:40:26;29.70;99.90
9987;DHT22;5033;46.310;11.214;2023-07-29T12:42:55;29.80;99.90
9987;DHT22;5033;46.310;11.214;2023-07-29T12:45:22;29.80;99.90
9987;DHT22;5033;46.310;11.214;2023-07-29T12:47:52;29.80;99.90
9987;DHT22;5033;46.310;11.214;2023-07-29T12:50:19;29.70;99.90
9987;DHT22;5033;46.310;11.214;2023-07-29T12:52:46;29.80;99.90
9987;DHT22;5033;46.310;11.214;2023-07-29T12:55:14;29.90;99.90
9987;DHT22;5033;46.310;11.214;2023-07-29T12:57:42;29.90;99.90
9987;DHT22;5033;46.310;11.214;2023-07-29T13:00:12;29.80;99.90
9987;DHT22;5033;46.310;11.214;2023-07-29T13:02:40;29.90;99.90
9987;DHT22;5033;46.310;11.214;2023-07-29T13:05:10;30.00;99.90
9987;DHT22;5033;46.310;11.214;2023-07-29T13:07:37;30.10;99.90
9987;DHT22;5033;46.310;11.214;2023-07-29T13:10:05;30.20;99.90
9987;DHT22;5033;46.310;11.214;2023-07-29T13:12:32;30.30;99.90
9987;DHT22;5033;46.310;11.214;2023-07-29T13:15:00;30.40;99.90
9987;DHT22;5033;46.310;11.214;2023-07-29T13:17:28;30.50;99.90
9987;DHT22;5033;46.310;11.214;2023-07-29T13:19:55;30.50;99.90
9987;DHT22;5033;46.310;11.214;2023-07-29T13:22:22;30.70;99.90
9987;DHT22;5033;46.310;11.214;2023-07-29T13:24:49;30.70;99.90
9987;DHT22;5033;46.310;11.214;2023-07-29T13:27:16;30.70;99.90
9987;DHT22;5033;46.310;11.214;2023-07-29T13:29:43;30.30;99.90
9987;DHT22;5033;46.310;11.214;2023-07-29T13:32:11;30.00;99.90
9987;DHT22;5033;46.310;11.214;2023-07-29T13:34:40;30.10;99.90
9987;DHT22;5033;46.310;11.214;2023-07-29T13:37:07;30.20;99.90
9987;DHT22;5033;46.310;11.214;2023-07-29T13:39:34;30.50;99.90
9987;DHT22;5033;46.310;11.214;2023-07-29T13:42:01;30.60;99.90
9987;DHT22;5033;46.310;11.214;2023-07-29T13:44:28;30.10;99.90
9987;DHT22;5033;46.310;11.214;2023-07-29T13:46:55;29.40;99.90
9987;DHT22;5033;46.310;11.214;2023-07-29T13:49:22;29.20;99.90
9987;DHT22;5033;46.310;11.214;2023-07-29T13:51:51;29.50;99.90
9987;DHT22;5033;46.310;11.214;2023-07-29T13:54:18;29.90;99.90
9987;DHT22;5033;46.310;11.214;2023-07-29T13:56:47;30.00;99.90
9987;DHT22;5033;46.310;11.214;2023-07-29T13:59:14;30.00;99.90
9987;DHT22;5033;46.310;11.214;2023-07-29T14:01:41;29.70;99.90
9987;DHT22;5033;46.310;11.214;2023-07-29T14:04:08;29.30;99.90
9987;DHT22;5033;46.310;11.214;2023-07-29T14:06:35;29.20;99.90
9987;DHT22;5033;46.310;11.214;2023-07-29T14:09:03;28.90;99.90
9987;DHT22;5033;46.310;11.214;2023-07-29T14:11:30;28.90;99.90
9987;DHT22;5033;46.310;11.214;2023-07-29T14:13:58;28.80;99.90
9987;DHT22;5033;46.310;11.214;2023-07-29T14:16:25;28.90;99.90
9987;DHT22;5033;46.310;11.214;2023-07-29T14:18:52;29.10;99.90
9987;DHT22;5033;46.310;11.214;2023-07-29T14:21:19;28.90;99.90
9987;DHT22;5033;46.310;11.214;2023-07-29T14:23:46;28.50;99.90
9987;DHT22;5033;46.310;11.214;2023-07-29T14:26:15;28.10;99.90
9987;DHT22;5033;46.310;11.214;2023-07-29T14:28:41;27.90;99.90
9987;DHT22;5033;46.310;11.214;2023-07-29T14:31:09;27.90;99.90
9987;DHT22;5033;46.310;11.214;2023-07-29T14:33:36;27.90;99.90
9987;DHT22;5033;46.310;11.214;2023-07-29T14:36:03;27.60;99.90
9987;DHT22;5033;46.310;11.214;2023-07-29T14:38:30;27.40;99.90
9987;DHT22;5033;46.310;11.214;2023-07-29T14:40:57;27.20;99.90
9987;DHT22;5033;46.310;11.214;2023-07-29T14:43:25;27.20;99.90
9987;DHT22;5033;46.310;11.214;2023-07-29T14:45:52;27.30;99.90
9987;DHT22;5033;46.310;11.214;2023-07-29T14:48:20;27.30;99.90
9987;DHT22;5033;46.310;11.214;2023-07-29T14:50:47;27.40;99.90
9987;DHT22;5033;46.310;11.214;2023-07-29T14:53:14;27.70;99.90
9987;DHT22;5033;46.310;11.214;2023-07-29T14:55:41;27.70;99.90
9987;DHT22;5033;46.310;11.214;2023-07-29T14:58:08;27.70;99.90
9987;DHT22;5033;46.310;11.214;2023-07-29T15:00:37;27.80;99.90
9987;DHT22;5033;46.310;11.214;2023-07-29T15:03:04;28.00;99.90
9987;DHT22;5033;46.310;11.214;2023-07-29T15:05:32;28.20;99.90
9987;DHT22;5033;46.310;11.214;2023-07-29T15:07:59;28.40;99.90
9987;DHT22;5033;46.310;11.214;2023-07-29T15:10:27;28.30;99.90
9987;DHT22;5033;46.310;11.214;2023-07-29T15:12:54;28.00;99.90
9987;DHT22;5033;46.310;11.214;2023-07-29T15:15:21;27.70;99.90
9987;DHT22;5033;46.310;11.214;2023-07-29T15:17:50;27.40;99.90
9987;DHT22;5033;46.310;11.214;2023-07-29T15:20:19;27.10;99.90
9987;DHT22;5033;46.310;11.214;2023-07-29T15:22:46;26.90;99.90
9987;DHT22;5033;46.310;11.214;2023-07-29T15:25:14;26.80;99.90
9987;DHT22;5033;46.310;11.214;2023-07-29T15:27:41;26.80;99.90
9987;DHT22;5033;46.310;11.214;2023-07-29T15:30:08;26.70;99.90
9987;DHT22;5033;46.310;11.214;2023-07-29T15:32:37;26.70;99.90
9987;DHT22;5033;46.310;11.214;2023-07-29T15:35:07;26.70;99.90
9987;DHT22;5033;46.310;11.214;2023-07-29T15:37:34;26.60;99.90
9987;DHT22;5033;46.310;11.214;2023-07-29T15:40:01;26.50;99.90
9987;DHT22;5033;46.310;11.214;2023-07-29T15:42:29;26.50;99.90
9987;DHT22;5033;46.310;11.214;2023-07-29T15:44:56;26.40;99.90
9987;DHT22;5033;46.310;11.214;2023-07-29T15:47:23;26.40;99.90
9987;DHT22;5033;46.310;11.214;2023-07-29T15:49:50;26.40;99.90
9987;DHT22;5033;46.310;11.214;2023-07-29T15:52:19;26.30;99.90